• Join FlightAware (Why Join?)
  • Login
  • US Flag 
02:57PM EDT


 

Airport Tracker/Info


-or-


 

Live Flight TrackerFlight Track Log ✈ N6751Y ✈ 29-Apr-2012 ✈ KFUL - KCNO

Flight Track Log - Related Links

Times and Time Zones

All times are in EDT time to prevent confusion due to time zone crossing. See the N6751Y flight status page for this flight to view local times or setup timezone preferences in your user account.

Time Position Orientation Groundspeed Altitude Reporting Facility
EDT Latitude Longitude Course Direction KTS MPH feet Rate Location/Type
06:07PM 33.8500 -118.0000 140° Southeast 133 153 1,800  Level Southern California TRACON
06:08PM 33.8167 -117.9667 121° Southeast 136 157 2,800 600 Climbing Southern California TRACON
06:09PM 33.8000 -117.9333 59° Northeast 154 177 3,100 480 Climbing Southern California TRACON
06:10PM 33.8167 -117.9000 68° East 140 161 3,800 660 Climbing Southern California TRACON
06:11PM 33.8333 -117.8500 59° Northeast 130 150 4,500 600 Climbing Southern California TRACON
06:12PM 33.8500 -117.8167 90° East 130 150 5,100 240 Climbing Southern California TRACON
06:13PM 33.8500 -117.7667 59° Northeast 141 162 5,000 -60 Descending Southern California TRACON
06:14PM 33.8667 -117.7333 68° East 133 153 5,000  Level Southern California TRACON
06:15PM 33.8833 -117.6833 90° East 133 153 5,000  Level Southern California TRACON
06:16PM 33.8833 -117.6333 59° Northeast 133 153 5,000  Level Southern California TRACON
06:17PM 33.9000 -117.6000 59° Northeast 136 157 5,100  Climbing Southern California TRACON
06:18PM 33.9167 -117.5667 90° East 127 146 5,000 -120 Descending Southern California TRACON
06:19PM 33.9167 -117.5167 59° Northeast 120 138 4,900  Descending Southern California TRACON
06:20PM 33.9333 -117.4833 59° Northeast 115 132 5,000 -240 Climbing Southern California TRACON
06:21PM 33.9500 -117.4500 320° Northwest 132 152 4,500 -600 Descending Southern California TRACON
06:22PM 33.9667 -117.4667 270° West 146 168 3,800 -660 Descending Southern California TRACON
06:23PM 33.9667 -117.5167 301° West 137 158 3,200 -660 Descending Southern California TRACON
06:24PM 33.9833 -117.5500 270° West 109 125 2,500 -840 Descending Southern California TRACON
06:25PM 33.9833 -117.5833 270° West 87 100 1,700 -780 Descending Southern California TRACON
06:26PM 33.9833 -117.6000 270° West 78 90 1,100 -480 Descending Southern California TRACON
06:27PM 33.9833 -117.6333 270° West 75 86 800 -300 Descending Southern California TRACON